createdAt,value
2024-03-26T00:00:54.135Z,84.76
2024-03-26T00:01:54.114Z,84.76
2024-03-26T00:02:54.110Z,84.76
2024-03-26T00:03:54.092Z,84.66
2024-03-26T00:04:54.177Z,84.55
2024-03-26T00:05:54.069Z,84.23
2024-03-26T00:06:54.057Z,84.44
2024-03-26T00:07:54.072Z,84.76
2024-03-26T00:08:54.049Z,85.08
2024-03-26T00:09:54.058Z,85.28
2024-03-26T00:10:54.009Z,85.49
2024-03-26T00:11:54.001Z,85.71
2024-03-26T00:12:53.986Z,86.02
2024-03-26T00:13:53.998Z,86.23
2024-03-26T00:14:53.984Z,86.12
2024-03-26T00:15:53.939Z,86.02
2024-03-26T00:16:53.961Z,85.81
2024-03-26T00:17:53.925Z,85.71
2024-03-26T00:18:53.932Z,85.71
2024-03-26T00:19:53.889Z,85.39
2024-03-26T00:20:53.881Z,85.49
2024-03-26T00:21:53.862Z,85.32
2024-03-26T00:22:53.915Z,85.42
2024-03-26T00:23:53.861Z,85.22
2024-03-26T00:24:53.826Z,84.91
2024-03-26T00:25:53.831Z,85.01
2024-03-26T00:26:53.812Z,84.69
2024-03-26T00:27:53.827Z,84.38
2024-03-26T00:28:53.798Z,84.06
2024-03-26T00:29:53.758Z,83.96
2024-03-26T00:30:53.754Z,84.17
2024-03-26T00:31:53.749Z,84.17
2024-03-26T00:32:53.743Z,84.27
2024-03-26T00:33:53.719Z,84.48
2024-03-26T00:34:53.708Z,85.32
2024-03-26T00:35:53.720Z,85.95
2024-03-26T00:36:53.692Z,85.95
2024-03-26T00:37:53.672Z,85.85
2024-03-26T00:38:53.649Z,85.74
2024-03-26T00:39:53.660Z,85.85
2024-03-26T00:40:53.630Z,85.85
2024-03-26T00:41:53.615Z,85.64
2024-03-26T00:42:53.602Z,85.53
2024-03-26T00:43:53.585Z,85.42
2024-03-26T00:44:53.609Z,85.42
2024-03-26T00:45:53.568Z,85.22
2024-03-26T00:46:53.557Z,85.22
2024-03-26T00:47:53.530Z,85.42
2024-03-26T00:48:53.536Z,85.64
2024-03-26T00:49:53.528Z,85.64
2024-03-26T00:50:53.512Z,85.57
2024-03-26T00:51:53.494Z,85.53
2024-03-26T00:52:53.490Z,85.42
2024-03-26T00:53:53.495Z,85.53
2024-03-26T00:54:53.441Z,85.32
2024-03-26T00:55:53.440Z,85.32
2024-03-26T00:56:53.425Z,85.22
2024-03-26T00:57:53.423Z,85.15
2024-03-26T00:58:53.403Z,84.84
2024-03-26T00:59:53.383Z,84.84
2024-03-26T01:00:53.378Z,84.84
2024-03-26T01:01:53.367Z,84.63
2024-03-26T01:02:53.377Z,84.31
2024-03-26T01:03:53.323Z,84.00
2024-03-26T01:04:53.339Z,84.00
2024-03-26T01:05:53.310Z,84.31
2024-03-26T01:06:53.295Z,84.52
2024-03-26T01:07:53.300Z,84.73
2024-03-26T01:08:53.266Z,84.73
2024-03-26T01:09:53.262Z,84.80
2024-03-26T01:10:53.244Z,84.91
2024-03-26T01:11:53.227Z,85.64
2024-03-26T01:12:53.242Z,86.06
2024-03-26T01:13:53.205Z,86.47
2024-03-26T01:14:53.207Z,86.79
2024-03-26T01:15:53.176Z,86.69
2024-03-26T01:16:53.187Z,86.62
2024-03-26T01:17:53.175Z,86.47
2024-03-26T01:18:53.174Z,86.41
2024-03-26T01:19:53.153Z,86.41
2024-03-26T01:20:53.138Z,86.27
2024-03-26T01:21:53.117Z,86.52
2024-03-26T01:22:53.093Z,86.52
2024-03-26T01:23:53.092Z,86.62
2024-03-26T01:24:53.064Z,86.83
2024-03-26T01:25:53.051Z,86.94
2024-03-26T01:26:53.060Z,87.15
2024-03-26T01:27:53.039Z,87.25
2024-03-26T01:28:53.024Z,87.36
2024-03-26T01:29:53.002Z,87.46
2024-03-26T01:30:53.005Z,87.57
2024-03-26T01:31:52.983Z,87.67
2024-03-26T01:32:53.061Z,87.67
2024-03-26T01:33:52.963Z,87.67
2024-03-26T01:34:52.964Z,87.46
2024-03-26T01:35:52.958Z,87.46
2024-03-26T01:36:52.970Z,87.46
2024-03-26T01:37:52.934Z,87.36
2024-03-26T01:38:52.892Z,87.25
2024-03-26T01:39:52.878Z,87.25
2024-03-26T01:40:52.878Z,87.36
2024-03-26T01:41:52.880Z,87.46
2024-03-26T01:42:52.845Z,87.77
2024-03-26T01:43:52.824Z,87.99
2024-03-26T01:44:52.813Z,88.09
2024-03-26T01:45:52.801Z,88.09
2024-03-26T01:46:52.832Z,88.20
2024-03-26T01:47:52.788Z,88.30
2024-03-26T01:48:52.760Z,88.30
2024-03-26T01:49:52.765Z,88.20
2024-03-26T01:50:52.769Z,88.20
2024-03-26T01:51:52.736Z,88.20
2024-03-26T01:52:52.720Z,88.20
2024-03-26T01:53:52.739Z,88.09
2024-03-26T01:54:52.680Z,88.09
2024-03-26T01:55:52.678Z,88.30
2024-03-26T01:56:52.659Z,88.30
2024-03-26T01:57:52.645Z,88.41
2024-03-26T01:58:52.652Z,88.41
2024-03-26T01:59:52.631Z,88.41
2024-03-26T02:00:52.640Z,88.41
2024-03-26T02:01:52.593Z,88.41
2024-03-26T02:02:52.625Z,88.30
2024-03-26T02:03:52.588Z,88.30
2024-03-26T02:04:52.565Z,88.45
2024-03-26T02:05:52.539Z,88.45
2024-03-26T02:06:52.540Z,88.55
2024-03-26T02:07:52.525Z,88.34
2024-03-26T02:08:52.532Z,88.24
2024-03-26T02:09:52.509Z,88.13
2024-03-26T02:10:52.473Z,88.13
2024-03-26T02:11:52.470Z,88.02
2024-03-26T02:12:52.453Z,88.02
2024-03-26T02:13:52.442Z,87.71
2024-03-26T02:14:52.466Z,87.50
2024-03-26T02:15:52.411Z,87.50
2024-03-26T02:16:52.399Z,87.29
2024-03-26T02:17:52.387Z,87.50
2024-03-26T02:18:52.389Z,87.40
2024-03-26T02:19:52.368Z,87.19
2024-03-26T02:20:52.352Z,86.87
2024-03-26T02:21:52.341Z,86.66
2024-03-26T02:22:52.327Z,86.87
2024-03-26T02:23:52.342Z,86.87
2024-03-26T02:24:52.295Z,86.87
2024-03-26T02:25:52.278Z,87.19
2024-03-26T02:26:52.272Z,87.40
2024-03-26T02:27:52.273Z,87.50
2024-03-26T02:28:52.266Z,87.71
2024-03-26T02:29:52.262Z,87.60
2024-03-26T02:30:52.227Z,87.50
2024-03-26T02:31:52.226Z,87.60
2024-03-26T02:32:52.206Z,87.82
2024-03-26T02:33:52.181Z,87.71
2024-03-26T02:34:52.178Z,87.82
2024-03-26T02:35:52.167Z,87.82
2024-03-26T02:36:52.157Z,87.82
2024-03-26T02:37:52.138Z,87.92
2024-03-26T02:38:52.119Z,88.13
2024-03-26T02:39:52.106Z,88.45
2024-03-26T02:40:52.107Z,88.34
2024-03-26T02:41:52.093Z,88.55
2024-03-26T02:42:52.080Z,88.76
2024-03-26T02:43:52.046Z,89.39
2024-03-26T02:44:52.063Z,89.92
2024-03-26T02:45:52.026Z,90.44
2024-03-26T02:46:52.043Z,90.72
2024-03-26T02:47:52.039Z,90.82
2024-03-26T02:48:52.012Z,90.92
2024-03-26T02:49:51.970Z,90.92
2024-03-26T02:50:52.019Z,90.92
2024-03-26T02:51:51.959Z,90.82
2024-03-26T02:52:51.946Z,90.82
2024-03-26T02:53:51.921Z,91.03
2024-03-26T02:54:51.918Z,91.45
2024-03-26T02:55:51.924Z,93.09
2024-03-26T02:56:51.938Z,94.04
2024-03-26T02:57:51.873Z,94.56
2024-03-26T02:58:51.876Z,94.56
2024-03-26T02:59:51.847Z,94.45
2024-03-26T03:00:51.849Z,94.45
2024-03-26T03:01:51.820Z,94.41
2024-03-26T03:02:51.831Z,94.51
2024-03-26T03:03:51.791Z,95.36
2024-03-26T03:04:51.796Z,95.42
2024-03-26T03:05:51.817Z,95.42
2024-03-26T03:06:51.763Z,95.52
2024-03-26T03:07:51.747Z,95.21
2024-03-26T03:08:51.754Z,95.21
2024-03-26T03:09:51.728Z,95.52
2024-03-26T03:10:51.753Z,95.58
2024-03-26T03:11:51.708Z,95.79
2024-03-26T03:12:51.692Z,95.68
2024-03-26T03:13:51.687Z,95.27
2024-03-26T03:14:51.669Z,94.95
2024-03-26T03:15:51.654Z,94.64
2024-03-26T03:16:51.663Z,94.32
2024-03-26T03:17:51.619Z,94.01
2024-03-26T03:18:51.613Z,93.80
2024-03-26T03:19:51.615Z,93.49
2024-03-26T03:20:51.577Z,93.34
2024-03-26T03:21:51.578Z,93.34
2024-03-26T03:22:51.579Z,93.34
2024-03-26T03:23:51.550Z,93.24
2024-03-26T03:24:51.523Z,93.13
2024-03-26T03:25:51.519Z,93.13
2024-03-26T03:26:51.515Z,93.13
2024-03-26T03:27:51.507Z,92.71
2024-03-26T03:28:51.491Z,92.61
2024-03-26T03:29:51.484Z,92.19
2024-03-26T03:30:51.452Z,91.77
2024-03-26T03:31:51.437Z,91.62
2024-03-26T03:32:51.502Z,91.72
2024-03-26T03:33:51.427Z,91.83
2024-03-26T03:34:51.398Z,91.62
2024-03-26T03:35:51.398Z,91.41
2024-03-26T03:36:51.380Z,91.52
2024-03-26T03:37:51.384Z,91.20
2024-03-26T03:38:51.386Z,90.99
2024-03-26T03:39:51.342Z,90.99
2024-03-26T03:40:51.333Z,91.41
2024-03-26T03:41:51.360Z,92.25
2024-03-26T03:42:51.304Z,92.35
2024-03-26T03:43:51.300Z,91.83
2024-03-26T03:44:51.277Z,91.94
2024-03-26T03:45:51.275Z,91.94
2024-03-26T03:46:51.257Z,91.83
2024-03-26T03:47:51.288Z,91.94
2024-03-26T03:48:51.222Z,92.52
2024-03-26T03:49:51.212Z,92.73
2024-03-26T03:50:51.256Z,92.00
2024-03-26T03:51:51.208Z,91.37
2024-03-26T03:52:51.215Z,91.06
2024-03-26T03:53:53.548Z,90.95
2024-03-26T03:54:51.161Z,90.43
2024-03-26T03:55:51.176Z,90.01
2024-03-26T03:56:51.158Z,90.01
2024-03-26T03:57:51.141Z,90.01
2024-03-26T03:58:51.110Z,90.01
2024-03-26T03:59:51.141Z,90.11
2024-03-26T04:00:51.077Z,89.70
2024-03-26T04:01:51.064Z,89.38
2024-03-26T04:02:51.111Z,89.28
2024-03-26T04:03:51.047Z,89.17
2024-03-26T04:04:51.022Z,89.48
2024-03-26T04:05:51.031Z,89.28
2024-03-26T04:06:51.011Z,89.59
2024-03-26T04:07:51.004Z,89.80
2024-03-26T04:08:50.989Z,89.86
2024-03-26T04:09:50.976Z,89.65
2024-03-26T04:10:50.959Z,89.55
2024-03-26T04:11:52.736Z,89.65
2024-03-26T04:12:50.928Z,89.76
2024-03-26T04:13:50.922Z,89.23
2024-03-26T04:14:50.937Z,89.13
2024-03-26T04:15:50.888Z,89.03
2024-03-26T04:16:50.873Z,89.45
2024-03-26T04:17:50.945Z,89.65
2024-03-26T04:18:50.836Z,90.49
2024-03-26T04:19:50.839Z,90.18
2024-03-26T04:20:50.880Z,90.39
2024-03-26T04:21:50.818Z,90.08
2024-03-26T04:22:50.804Z,90.18
2024-03-26T04:23:50.823Z,90.18
2024-03-26T04:24:50.791Z,90.28
2024-03-26T04:25:50.761Z,90.81
2024-03-26T04:26:50.764Z,91.22
2024-03-26T04:27:50.732Z,91.02
2024-03-26T04:28:50.746Z,91.22
2024-03-26T04:29:50.733Z,91.64
2024-03-26T04:30:50.699Z,92.06
2024-03-26T04:31:50.694Z,92.16
2024-03-26T04:32:50.708Z,91.75
2024-03-26T04:33:50.708Z,91.85
2024-03-26T04:34:50.629Z,91.33
2024-03-26T04:35:50.661Z,91.02
2024-03-26T04:36:50.609Z,90.59
2024-03-26T04:37:50.617Z,90.59
2024-03-26T04:38:50.658Z,90.77
2024-03-26T04:39:50.570Z,91.08
2024-03-26T04:40:50.556Z,90.87
2024-03-26T04:41:50.600Z,90.87
2024-03-26T04:42:50.545Z,90.97
2024-03-26T04:43:50.531Z,90.97
2024-03-26T04:44:50.560Z,91.28
2024-03-26T04:45:52.637Z,90.87
2024-03-26T04:46:50.493Z,90.77
2024-03-26T04:47:50.507Z,90.87
2024-03-26T04:48:50.460Z,91.18
2024-03-26T04:49:50.444Z,91.18
2024-03-26T04:50:50.450Z,91.39
2024-03-26T04:51:50.426Z,91.71
2024-03-26T04:52:50.425Z,91.91
2024-03-26T04:53:50.410Z,91.39
2024-03-26T04:54:50.377Z,91.18
2024-03-26T04:55:50.370Z,91.18
2024-03-26T04:56:50.433Z,91.08
2024-03-26T04:57:50.349Z,90.77
2024-03-26T04:58:50.350Z,90.34
2024-03-26T04:59:50.328Z,90.45
2024-03-26T05:00:50.308Z,90.03
2024-03-26T05:01:50.308Z,89.89
2024-03-26T05:02:50.295Z,89.47
2024-03-26T05:03:50.304Z,89.89
2024-03-26T05:04:50.273Z,90.41
2024-03-26T05:05:50.252Z,90.72
2024-03-26T05:06:50.231Z,90.83
2024-03-26T05:07:50.219Z,90.83
2024-03-26T05:08:50.221Z,90.72
2024-03-26T05:09:50.224Z,90.62
2024-03-26T05:10:50.190Z,90.93
2024-03-26T05:11:50.230Z,91.14
2024-03-26T05:12:50.150Z,91.35
2024-03-26T05:13:50.173Z,91.46
2024-03-26T05:14:50.145Z,91.56
2024-03-26T05:15:50.129Z,91.83
2024-03-26T05:16:50.107Z,91.72
2024-03-26T05:17:50.095Z,91.62
2024-03-26T05:18:50.072Z,91.41
2024-03-26T05:19:50.112Z,91.20
2024-03-26T05:20:50.073Z,91.10
2024-03-26T05:21:50.047Z,91.06
2024-03-26T05:22:50.046Z,90.85
2024-03-26T05:23:50.033Z,90.12
2024-03-26T05:24:50.015Z,90.08
2024-03-26T05:25:50.013Z,89.87
2024-03-26T05:26:50.024Z,89.72
2024-03-26T05:27:49.964Z,89.62
2024-03-26T05:29:49.984Z,88.95
2024-03-26T05:30:49.945Z,88.75
2024-03-26T05:31:49.922Z,88.43
2024-03-26T05:32:49.951Z,88.12
2024-03-26T05:33:49.897Z,87.87
2024-03-26T05:34:49.881Z,87.35
2024-03-26T05:35:49.885Z,87.24
2024-03-26T05:36:49.847Z,87.14
2024-03-26T05:37:49.847Z,86.89
2024-03-26T05:38:49.835Z,86.68
2024-03-26T05:39:49.832Z,86.47
2024-03-26T05:40:49.816Z,86.27
2024-03-26T05:41:49.798Z,86.02
2024-03-26T05:42:49.777Z,85.60
2024-03-26T05:43:49.772Z,85.14
2024-03-26T05:44:49.750Z,84.59
2024-03-26T05:45:49.751Z,84.06
2024-03-26T05:46:49.735Z,83.75
2024-03-26T05:47:49.726Z,83.40
2024-03-26T05:48:49.704Z,82.74
2024-03-26T05:49:49.679Z,82.18
2024-03-26T05:50:49.732Z,81.35
2024-03-26T05:51:49.658Z,80.49
2024-03-26T05:52:49.672Z,79.76
2024-03-26T05:53:49.638Z,79.55
2024-03-26T05:54:49.616Z,79.44
2024-03-26T05:55:49.606Z,79.03
2024-03-26T05:56:49.655Z,79.24
2024-03-26T05:57:49.581Z,79.03
2024-03-26T05:58:49.557Z,78.68
2024-03-26T05:59:49.572Z,78.78
2024-03-26T06:00:49.569Z,78.58
2024-03-26T06:01:49.560Z,78.23
2024-03-26T06:02:49.585Z,78.13
2024-03-26T06:03:49.503Z,77.37
2024-03-26T06:04:49.510Z,76.71
2024-03-26T06:05:49.488Z,75.81
2024-03-26T06:06:49.490Z,74.88
2024-03-26T06:07:49.465Z,74.67
2024-03-26T06:08:49.442Z,74.32
2024-03-26T06:09:49.444Z,73.81
2024-03-26T06:10:49.444Z,73.60
2024-03-26T06:11:49.492Z,73.36
2024-03-26T06:12:49.403Z,72.94
2024-03-26T06:13:49.387Z,72.94
2024-03-26T06:14:49.436Z,72.43
2024-03-26T06:15:49.343Z,72.39
2024-03-26T06:16:49.351Z,72.05
2024-03-26T06:17:49.335Z,71.84
2024-03-26T06:18:49.299Z,71.33
2024-03-26T06:19:49.347Z,70.98
2024-03-26T06:20:49.291Z,70.98
2024-03-26T06:21:49.259Z,71.19
2024-03-26T06:22:49.277Z,70.47
2024-03-26T06:23:49.435Z,70.33
2024-03-26T06:24:49.233Z,70.33
2024-03-26T06:25:49.212Z,70.03
2024-03-26T06:26:49.215Z,69.61
2024-03-26T06:27:49.223Z,69.89
2024-03-26T06:28:49.165Z,69.27
2024-03-26T06:29:49.235Z,68.72
2024-03-26T06:30:49.159Z,68.21
2024-03-26T06:31:49.157Z,68.30
2024-03-26T06:32:49.290Z,68.17
2024-03-26T06:33:49.134Z,67.73
2024-03-26T06:34:49.146Z,67.00
2024-03-26T06:35:49.119Z,66.25
2024-03-26T06:36:49.065Z,65.78
2024-03-26T06:37:49.074Z,65.23
2024-03-26T06:38:49.053Z,64.56
2024-03-26T06:39:49.040Z,62.88
2024-03-26T06:40:49.026Z,61.80
2024-03-26T06:41:49.027Z,60.41
2024-03-26T06:42:49.032Z,59.66
2024-03-26T06:43:49.006Z,58.38
2024-03-26T06:44:48.956Z,57.94
2024-03-26T06:45:48.954Z,57.28
2024-03-26T06:46:48.935Z,55.82
2024-03-26T06:47:48.946Z,55.26
2024-03-26T06:48:48.938Z,54.82
2024-03-26T06:49:48.911Z,54.67
2024-03-26T06:50:48.895Z,52.81
2024-03-26T06:51:48.922Z,52.55
2024-03-26T06:52:48.876Z,51.41
2024-03-26T06:53:48.856Z,49.86
2024-03-26T06:54:48.844Z,49.63
2024-03-26T06:55:48.823Z,49.40
2024-03-26T06:56:48.802Z,48.87
2024-03-26T06:57:48.808Z,48.65
2024-03-26T06:58:48.786Z,48.32
2024-03-26T06:59:48.786Z,47.59
2024-03-26T07:00:48.758Z,46.35
2024-03-26T07:01:48.755Z,47.16
2024-03-26T07:02:48.758Z,46.33
2024-03-26T07:03:48.707Z,45.50
2024-03-26T07:04:48.695Z,45.57
2024-03-26T07:05:48.688Z,44.54
2024-03-26T07:06:48.690Z,44.12
2024-03-26T07:07:48.665Z,43.69
2024-03-26T07:08:48.657Z,43.26
2024-03-26T07:09:48.625Z,43.46
2024-03-26T07:10:48.620Z,43.14
2024-03-26T07:11:48.612Z,42.23
2024-03-26T07:12:48.614Z,43.24
2024-03-26T07:13:48.587Z,42.32
2024-03-26T07:14:48.565Z,42.29
2024-03-26T07:15:48.565Z,41.56
2024-03-26T07:16:48.571Z,41.85
2024-03-26T07:17:48.535Z,41.53
2024-03-26T07:18:50.178Z,40.10
2024-03-26T07:19:48.497Z,40.18
2024-03-26T07:20:48.498Z,40.48
2024-03-26T07:21:48.479Z,40.26
2024-03-26T07:22:48.494Z,40.26
2024-03-26T07:23:48.452Z,39.56
2024-03-26T07:24:48.435Z,38.23
2024-03-26T07:25:48.429Z,39.03
2024-03-26T07:26:48.427Z,39.34
2024-03-26T07:27:48.406Z,39.74
2024-03-26T07:28:48.393Z,38.62
2024-03-26T07:29:48.399Z,38.23
2024-03-26T07:30:48.380Z,37.63
2024-03-26T07:31:48.340Z,38.45
2024-03-26T07:32:48.367Z,38.25
2024-03-26T07:33:48.323Z,37.95
2024-03-26T07:34:48.319Z,38.75
2024-03-26T07:35:48.298Z,38.53
2024-03-26T07:36:48.359Z,38.73
2024-03-26T07:37:48.261Z,38.81
2024-03-26T07:38:48.265Z,38.60
2024-03-26T07:39:48.249Z,37.01
2024-03-26T07:40:48.243Z,38.01
2024-03-26T07:41:48.218Z,39.10
2024-03-26T07:42:48.210Z,38.09
2024-03-26T07:43:48.203Z,38.18
2024-03-26T07:44:48.316Z,37.77
2024-03-26T07:45:48.174Z,37.19
2024-03-26T07:46:48.173Z,37.08
2024-03-26T07:47:48.129Z,37.91
2024-03-26T07:48:48.137Z,38.64
2024-03-26T07:49:48.179Z,39.34
2024-03-26T07:50:48.139Z,38.64
2024-03-26T07:51:48.078Z,38.64
2024-03-26T07:52:48.245Z,38.35
2024-03-26T07:53:48.153Z,39.15
2024-03-26T07:54:48.059Z,38.85
2024-03-26T07:55:48.030Z,39.25
2024-03-26T07:56:48.032Z,39.25
2024-03-26T07:57:48.025Z,38.95
2024-03-26T07:58:47.998Z,39.56
2024-03-26T07:59:48.025Z,39.43
2024-03-26T08:00:47.974Z,38.11
2024-03-26T08:01:47.950Z,38.09
2024-03-26T08:02:47.965Z,38.49
2024-03-26T08:03:47.957Z,37.98
2024-03-26T08:04:47.920Z,38.18
2024-03-26T08:05:47.916Z,37.67
2024-03-26T08:06:47.922Z,37.19
2024-03-26T08:07:47.905Z,38.21
2024-03-26T08:08:47.926Z,38.92
2024-03-26T08:09:47.850Z,39.72
2024-03-26T08:10:47.845Z,39.30
2024-03-26T08:11:47.840Z,37.59
2024-03-26T08:12:47.814Z,37.69
2024-03-26T08:13:47.819Z,37.39
2024-03-26T08:14:47.836Z,38.11
2024-03-26T08:15:47.786Z,38.83
2024-03-26T08:16:47.900Z,38.53
2024-03-26T08:17:47.769Z,38.85
2024-03-26T08:18:47.756Z,39.68
2024-03-26T08:19:47.735Z,38.99
2024-03-26T08:20:47.747Z,39.50
2024-03-26T08:21:47.695Z,39.51
2024-03-26T08:22:47.692Z,39.33
2024-03-26T08:23:47.710Z,40.05
2024-03-26T08:24:47.688Z,40.98
2024-03-26T08:25:47.683Z,41.28
2024-03-26T08:26:47.628Z,41.16
2024-03-26T08:27:47.629Z,41.56
2024-03-26T08:28:47.605Z,41.36
2024-03-26T08:29:47.622Z,41.67
2024-03-26T08:30:47.585Z,41.87
2024-03-26T08:31:47.572Z,41.18
2024-03-26T08:32:47.572Z,41.39
2024-03-26T08:33:47.547Z,40.80
2024-03-26T08:34:47.549Z,40.90
2024-03-26T08:35:47.522Z,42.21
2024-03-26T08:36:47.486Z,41.59
2024-03-26T08:37:47.471Z,41.59
2024-03-26T08:38:47.498Z,41.71
2024-03-26T08:39:47.483Z,42.03
2024-03-26T08:40:47.442Z,42.23
2024-03-26T08:41:47.427Z,42.84
2024-03-26T08:42:47.418Z,42.43
2024-03-26T08:43:47.428Z,43.73
2024-03-26T08:44:47.405Z,42.49
2024-03-26T08:45:47.400Z,42.07
2024-03-26T08:46:47.360Z,41.67
2024-03-26T08:47:47.355Z,41.56
2024-03-26T08:48:47.371Z,40.76
2024-03-26T08:49:47.325Z,41.36
2024-03-26T08:50:47.327Z,41.55
2024-03-26T08:51:48.767Z,41.22
2024-03-26T08:52:47.299Z,41.53
2024-03-26T08:53:47.283Z,41.00
2024-03-26T08:54:47.259Z,41.41
2024-03-26T08:55:47.265Z,40.69
2024-03-26T08:56:47.240Z,41.09
2024-03-26T08:57:47.231Z,40.18
2024-03-26T08:58:47.214Z,39.56
2024-03-26T08:59:47.189Z,39.65
2024-03-26T09:00:47.193Z,39.45
2024-03-26T09:01:47.778Z,38.85
2024-03-26T09:02:47.193Z,40.66
2024-03-26T09:03:47.149Z,39.45
2024-03-26T09:04:47.130Z,39.56
2024-03-26T09:05:47.113Z,39.65
2024-03-26T09:06:47.140Z,40.77
2024-03-26T09:07:47.112Z,39.03
2024-03-26T09:08:47.072Z,39.84
2024-03-26T09:09:47.068Z,40.04
2024-03-26T09:10:47.056Z,39.92
2024-03-26T09:11:47.040Z,39.80
2024-03-26T09:12:47.048Z,38.40
2024-03-26T09:13:47.021Z,38.31
2024-03-26T09:14:46.996Z,38.62
2024-03-26T09:15:47.017Z,39.62
2024-03-26T09:16:47.014Z,39.94
2024-03-26T09:17:47.043Z,39.34
2024-03-26T09:18:46.987Z,40.36
2024-03-26T09:19:46.922Z,39.65
2024-03-26T09:20:46.927Z,38.55
2024-03-26T09:21:46.922Z,39.14
2024-03-26T09:22:46.901Z,39.84
2024-03-26T09:23:46.873Z,39.56
2024-03-26T09:24:50.715Z,38.55
2024-03-26T09:25:46.864Z,39.05
2024-03-26T09:26:46.867Z,39.25
2024-03-26T09:27:46.831Z,39.25
2024-03-26T09:28:46.814Z,39.65
2024-03-26T09:29:46.821Z,38.85
2024-03-26T09:30:46.791Z,39.76
2024-03-26T09:31:46.840Z,38.25
2024-03-26T09:32:46.766Z,38.25
2024-03-26T09:33:46.754Z,39.05
2024-03-26T09:34:46.740Z,40.16
2024-03-26T09:35:47.369Z,37.74
2024-03-26T09:36:46.706Z,39.05
2024-03-26T09:37:46.676Z,39.68
2024-03-26T09:38:48.823Z,38.27
2024-03-26T09:39:46.676Z,39.19
2024-03-26T09:40:46.665Z,39.70
2024-03-26T09:41:46.629Z,39.07
2024-03-26T09:42:46.629Z,39.37
2024-03-26T09:43:46.618Z,39.88
2024-03-26T09:44:55.109Z,38.57
2024-03-26T09:45:47.625Z,38.07
2024-03-26T09:46:46.591Z,39.50
2024-03-26T09:47:46.556Z,40.48
2024-03-26T09:48:46.566Z,38.47
2024-03-26T09:49:46.525Z,38.67
2024-03-26T09:50:46.520Z,38.77
2024-03-26T09:51:46.497Z,38.77
2024-03-26T09:52:46.496Z,36.98
2024-03-26T09:53:46.505Z,38.81
2024-03-26T09:54:46.471Z,37.40
2024-03-26T09:55:46.445Z,38.52
2024-03-26T09:56:46.432Z,39.13
2024-03-26T09:57:46.443Z,39.04
2024-03-26T09:58:46.447Z,39.06
2024-03-26T09:59:46.398Z,39.08
2024-03-26T10:00:46.394Z,40.09
2024-03-26T10:01:46.375Z,39.91
2024-03-26T10:02:46.371Z,40.82
2024-03-26T10:03:46.369Z,40.21
2024-03-26T10:04:46.321Z,40.61
2024-03-26T10:05:46.361Z,41.42
2024-03-26T10:06:46.315Z,40.50
2024-03-26T10:07:46.310Z,40.39
2024-03-26T10:08:46.268Z,41.50
2024-03-26T10:09:46.260Z,40.09
2024-03-26T10:10:46.259Z,40.30
2024-03-26T10:11:46.273Z,39.28
2024-03-26T10:12:46.232Z,41.02
2024-03-26T10:13:46.222Z,40.82
2024-03-26T10:14:46.193Z,41.50
2024-03-26T10:15:46.220Z,40.30
2024-03-26T10:16:46.193Z,39.99
2024-03-26T10:17:46.174Z,40.19
2024-03-26T10:18:46.166Z,41.10
2024-03-26T10:19:46.131Z,40.30
2024-03-26T10:20:46.157Z,39.89
2024-03-26T10:21:46.110Z,41.41
2024-03-26T10:22:46.780Z,39.69
2024-03-26T10:23:46.081Z,40.52
2024-03-26T10:24:46.094Z,41.32
2024-03-26T10:25:46.066Z,42.21
2024-03-26T10:26:46.031Z,41.41
2024-03-26T10:27:46.022Z,39.48
2024-03-26T10:28:46.009Z,38.88
2024-03-26T10:29:45.998Z,39.99
2024-03-26T10:30:45.995Z,40.72
2024-03-26T10:31:45.997Z,41.32
2024-03-26T10:32:45.955Z,42.52
2024-03-26T10:33:45.959Z,42.01
2024-03-26T10:34:45.955Z,42.61
2024-03-26T10:35:45.961Z,42.32
2024-03-26T10:36:45.914Z,42.61
2024-03-26T10:37:45.909Z,40.70
2024-03-26T10:38:53.932Z,41.50
2024-03-26T10:39:46.921Z,41.61
2024-03-26T10:40:45.853Z,42.11
2024-03-26T10:41:45.842Z,42.92
2024-03-26T10:42:45.851Z,41.81
2024-03-26T10:43:45.838Z,41.41
2024-03-26T10:44:45.820Z,42.32
2024-03-26T10:45:59.954Z,41.81
2024-03-26T10:46:48.253Z,41.71
2024-03-26T10:47:45.781Z,42.61
2024-03-26T10:48:54.296Z,42.70
2024-03-26T10:49:46.740Z,42.19
2024-03-26T10:50:45.755Z,42.70
2024-03-26T10:51:45.745Z,42.19
2024-03-26T10:52:45.820Z,41.28
2024-03-26T10:53:45.711Z,41.49
2024-03-26T10:54:45.665Z,41.89
2024-03-26T10:55:45.659Z,41.69
2024-03-26T10:56:45.646Z,41.49
2024-03-26T10:57:45.640Z,41.61
2024-03-26T10:58:45.621Z,41.30
2024-03-26T10:59:45.609Z,42.92
2024-03-26T11:00:45.633Z,42.09
2024-03-26T11:01:45.580Z,42.40
2024-03-26T11:02:54.646Z,41.39
2024-03-26T11:03:45.583Z,41.59
2024-03-26T11:04:45.593Z,42.60
2024-03-26T11:05:45.524Z,42.19
2024-03-26T11:06:45.629Z,43.71
2024-03-26T11:07:45.515Z,42.18
2024-03-26T11:08:45.503Z,41.77
2024-03-26T11:09:45.478Z,43.18
2024-03-26T11:10:45.454Z,40.86
2024-03-26T11:11:45.485Z,42.68
2024-03-26T11:12:45.429Z,41.47
2024-03-26T11:13:45.433Z,40.86
2024-03-26T11:14:45.402Z,40.76
2024-03-26T11:15:45.395Z,42.68
2024-03-26T11:16:45.389Z,40.86
2024-03-26T11:17:45.386Z,41.28
2024-03-26T11:18:45.348Z,40.48
2024-03-26T11:19:45.333Z,41.79
2024-03-26T11:20:45.360Z,41.18
2024-03-26T11:21:46.349Z,42.09
2024-03-26T11:22:45.286Z,42.29
2024-03-26T11:23:45.295Z,41.49
2024-03-26T11:24:45.277Z,41.18
2024-03-26T11:25:45.271Z,40.98
2024-03-26T11:26:45.249Z,41.28
2024-03-26T11:27:45.223Z,41.99
2024-03-26T11:28:45.235Z,43.69
2024-03-26T11:29:45.220Z,40.86
2024-03-26T11:30:45.230Z,41.08
2024-03-26T11:31:45.184Z,42.49
2024-03-26T11:32:45.175Z,40.58
2024-03-26T11:33:45.171Z,40.08
2024-03-26T11:34:45.149Z,40.88
2024-03-26T11:35:45.131Z,41.39
2024-03-26T11:36:45.115Z,41.39
2024-03-26T11:37:45.094Z,40.68
2024-03-26T11:38:45.099Z,40.78
2024-03-26T11:39:45.094Z,41.91
2024-03-26T11:40:45.070Z,40.68
2024-03-26T11:41:45.052Z,40.98
2024-03-26T11:42:45.070Z,41.89
2024-03-26T11:43:45.038Z,40.78
2024-03-26T11:44:45.026Z,39.69
2024-03-26T11:45:44.992Z,41.30
2024-03-26T11:46:44.977Z,40.70
2024-03-26T11:47:45.002Z,40.19
2024-03-26T11:48:44.956Z,40.30
2024-03-26T11:49:44.956Z,40.19
2024-03-26T11:50:44.926Z,41.00
2024-03-26T11:51:44.940Z,40.68
2024-03-26T11:52:44.895Z,40.58
2024-03-26T11:53:44.906Z,39.75
2024-03-26T11:54:44.878Z,41.16
2024-03-26T11:55:44.859Z,41.05
2024-03-26T11:56:44.860Z,40.23
2024-03-26T11:57:44.852Z,39.43
2024-03-26T11:58:44.830Z,39.63
2024-03-26T11:59:44.814Z,40.54
2024-03-26T12:00:44.789Z,40.01
2024-03-26T12:01:44.798Z,39.11
2024-03-26T12:02:44.785Z,38.71
2024-03-26T12:03:44.781Z,39.92
2024-03-26T12:04:44.743Z,39.51
2024-03-26T12:05:44.728Z,39.92
2024-03-26T12:06:44.748Z,41.42
2024-03-26T12:07:44.713Z,41.33
2024-03-26T12:08:44.695Z,39.01
2024-03-26T12:09:44.720Z,38.20
2024-03-26T12:10:44.681Z,37.60
2024-03-26T12:11:44.658Z,38.00
2024-03-26T12:12:44.669Z,39.92
2024-03-26T12:13:44.618Z,37.60
2024-03-26T12:14:45.543Z,38.30
2024-03-26T12:15:44.600Z,37.70
2024-03-26T12:16:44.606Z,41.33
2024-03-26T12:17:44.589Z,38.50
2024-03-26T12:18:44.563Z,39.61
2024-03-26T12:19:44.551Z,40.72
2024-03-26T12:20:44.536Z,40.12
2024-03-26T12:21:44.544Z,40.12
2024-03-26T12:22:44.512Z,39.51
2024-03-26T12:23:44.502Z,40.10
2024-03-26T12:24:44.480Z,39.90
2024-03-26T12:25:44.463Z,39.70
2024-03-26T12:26:44.453Z,39.79
2024-03-26T12:27:46.645Z,38.59
2024-03-26T12:28:44.450Z,41.71
2024-03-26T12:29:44.412Z,41.91
2024-03-26T12:30:44.421Z,39.79
2024-03-26T12:31:44.409Z,40.00
2024-03-26T12:32:44.425Z,40.60
2024-03-26T12:33:45.594Z,40.30
2024-03-26T12:34:44.412Z,38.28
2024-03-26T12:35:44.399Z,39.90
2024-03-26T12:36:44.411Z,41.81
2024-03-26T12:37:44.369Z,40.10
2024-03-26T12:38:44.424Z,39.29
2024-03-26T12:39:44.366Z,40.80
2024-03-26T12:40:44.429Z,39.21
2024-03-26T12:41:44.277Z,39.31
2024-03-26T12:42:44.255Z,38.10
2024-03-26T12:43:44.229Z,38.20
2024-03-26T12:44:44.231Z,39.01
2024-03-26T12:45:44.255Z,39.73
2024-03-26T12:46:44.191Z,38.42
2024-03-26T12:47:44.181Z,40.03
2024-03-26T12:48:44.170Z,39.33
2024-03-26T12:49:44.160Z,41.05
2024-03-26T12:50:44.132Z,40.84
2024-03-26T12:51:44.130Z,41.25
2024-03-26T12:52:44.107Z,40.94
2024-03-26T12:54:35.818Z,40.23